sensor_id;sensor_type;location;lat;lon;timestamp;pressure;altitude;pressure_sealevel;temperature;humidity
54900;BME280;40801;41.924;25.562;2023-04-07T00:01:42;99304.13;;;8.13;40.12
54900;BME280;40801;41.924;25.562;2023-04-07T00:04:08;99303.16;;;8.03;40.26
54900;BME280;40801;41.924;25.562;2023-04-07T00:06:33;99307.38;;;7.91;40.29
54900;BME280;40801;41.924;25.562;2023-04-07T00:08:59;99303.31;;;7.93;40.25
54900;BME280;40801;41.924;25.562;2023-04-07T00:11:24;99297.88;;;7.98;40.17
54900;BME280;40801;41.924;25.562;2023-04-07T00:13:50;99306.78;;;7.94;40.08
54900;BME280;40801;41.924;25.562;2023-04-07T00:16:15;99304.84;;;7.81;40.54
54900;BME280;40801;41.924;25.562;2023-04-07T00:18:40;99299.47;;;7.81;40.35
54900;BME280;40801;41.924;25.562;2023-04-07T00:21:06;99302.41;;;7.79;40.79
54900;BME280;40801;41.924;25.562;2023-04-07T00:23:31;99297.28;;;7.83;40.72
54900;BME280;40801;41.924;25.562;2023-04-07T00:25:57;99293.22;;;7.85;40.59
54900;BME280;40801;41.924;25.562;2023-04-07T00:28:22;99290.38;;;7.76;40.39
54900;BME280;40801;41.924;25.562;2023-04-07T00:30:48;99286.09;;;7.75;40.21
54900;BME280;40801;41.924;25.562;2023-04-07T00:33:13;99284.28;;;7.71;40.10
54900;BME280;40801;41.924;25.562;2023-04-07T00:35:38;99294.69;;;7.54;40.45
54900;BME280;40801;41.924;25.562;2023-04-07T00:38:04;99289.94;;;7.69;40.58
54900;BME280;40801;41.924;25.562;2023-04-07T00:40:29;99304.66;;;7.72;40.36
54900;BME280;40801;41.924;25.562;2023-04-07T00:42:55;99305.22;;;7.69;40.21
54900;BME280;40801;41.924;25.562;2023-04-07T00:45:21;99308.44;;;7.71;40.33
54900;BME280;40801;41.924;25.562;2023-04-07T00:47:46;99306.91;;;7.65;40.20
54900;BME280;40801;41.924;25.562;2023-04-07T00:50:11;99306.09;;;7.40;40.49
54900;BME280;40801;41.924;25.562;2023-04-07T00:52:38;99307.25;;;7.58;40.65
54900;BME280;40801;41.924;25.562;2023-04-07T00:55:04;99299.25;;;7.53;40.66
54900;BME280;40801;41.924;25.562;2023-04-07T00:57:30;99313.50;;;7.49;40.76
54900;BME280;40801;41.924;25.562;2023-04-07T00:59:56;99310.16;;;7.62;40.10
54900;BME280;40801;41.924;25.562;2023-04-07T01:04:57;99314.66;;;7.66;39.63
54900;BME280;40801;41.924;25.562;2023-04-07T01:07:27;99305.84;;;7.85;39.65
54900;BME280;40801;41.924;25.562;2023-04-07T01:09:57;99299.25;;;7.53;39.51
54900;BME280;40801;41.924;25.562;2023-04-07T01:12:40;99304.28;;;7.36;39.96
54900;BME280;40801;41.924;25.562;2023-04-07T01:15:11;99299.72;;;7.60;39.79
54900;BME280;40801;41.924;25.562;2023-04-07T01:17:43;99307.03;;;7.55;39.71
54900;BME280;40801;41.924;25.562;2023-04-07T01:20:16;99319.44;;;7.69;39.18
54900;BME280;40801;41.924;25.562;2023-04-07T01:22:53;99304.94;;;7.70;39.13
54900;BME280;40801;41.924;25.562;2023-04-07T01:30:30;99326.75;;;7.64;39.22
54900;BME280;40801;41.924;25.562;2023-04-07T01:32:58;99326.34;;;7.75;39.82
54900;BME280;40801;41.924;25.562;2023-04-07T01:35:25;99328.22;;;7.75;39.08
54900;BME280;40801;41.924;25.562;2023-04-07T01:37:54;99334.53;;;7.65;39.44
54900;BME280;40801;41.924;25.562;2023-04-07T01:40:20;99331.91;;;7.60;39.82
54900;BME280;40801;41.924;25.562;2023-04-07T01:42:47;99322.00;;;7.80;39.23
54900;BME280;40801;41.924;25.562;2023-04-07T01:45:13;99322.00;;;7.80;39.78
54900;BME280;40801;41.924;25.562;2023-04-07T01:47:40;99328.16;;;7.80;39.68
54900;BME280;40801;41.924;25.562;2023-04-07T01:50:07;99329.50;;;7.83;40.67
54900;BME280;40801;41.924;25.562;2023-04-07T01:52:34;99325.91;;;7.68;40.31
54900;BME280;40801;41.924;25.562;2023-04-07T01:55:01;99323.03;;;7.84;40.03
54900;BME280;40801;41.924;25.562;2023-04-07T01:57:27;99324.78;;;7.93;40.18
54900;BME280;40801;41.924;25.562;2023-04-07T01:59:53;99324.06;;;7.88;40.17
54900;BME280;40801;41.924;25.562;2023-04-07T02:02:18;99330.97;;;7.94;40.06
54900;BME280;40801;41.924;25.562;2023-04-07T02:04:53;99331.59;;;7.86;39.82
54900;BME280;40801;41.924;25.562;2023-04-07T02:07:48;99336.91;;;7.91;40.50
54900;BME280;40801;41.924;25.562;2023-04-07T02:10:16;99336.91;;;7.91;39.86
54900;BME280;40801;41.924;25.562;2023-04-07T02:12:44;99333.03;;;7.78;39.91
54900;BME280;40801;41.924;25.562;2023-04-07T02:15:11;99335.78;;;7.73;40.19
54900;BME280;40801;41.924;25.562;2023-04-07T02:17:39;99330.59;;;7.82;39.93
54900;BME280;40801;41.924;25.562;2023-04-07T02:20:10;99330.69;;;7.71;40.55
54900;BME280;40801;41.924;25.562;2023-04-07T02:22:40;99336.00;;;7.76;39.77
54900;BME280;40801;41.924;25.562;2023-04-07T02:25:29;99330.69;;;7.71;40.15
54900;BME280;40801;41.924;25.562;2023-04-07T02:27:57;99338.22;;;7.69;40.16
54900;BME280;40801;41.924;25.562;2023-04-07T02:30:24;99338.06;;;7.85;40.30
54900;BME280;40801;41.924;25.562;2023-04-07T02:32:50;99339.94;;;7.84;40.30
54900;BME280;40801;41.924;25.562;2023-04-07T02:35:16;99343.53;;;7.74;40.29
54900;BME280;40801;41.924;25.562;2023-04-07T02:37:42;99343.31;;;7.71;40.34
54900;BME280;40801;41.924;25.562;2023-04-07T02:40:08;99341.44;;;7.71;40.48
54900;BME280;40801;41.924;25.562;2023-04-07T02:42:34;99350.34;;;7.91;40.08
54900;BME280;40801;41.924;25.562;2023-04-07T02:45:01;99350.97;;;7.83;40.58
54900;BME280;40801;41.924;25.562;2023-04-07T02:47:26;99353.59;;;7.88;39.65
54900;BME280;40801;41.924;25.562;2023-04-07T02:49:52;99348.50;;;7.86;40.02
54900;BME280;40801;41.924;25.562;2023-04-07T02:52:17;99350.78;;;7.74;40.56
54900;BME280;40801;41.924;25.562;2023-04-07T02:54:42;99342.84;;;7.88;40.36
54900;BME280;40801;41.924;25.562;2023-04-07T02:57:08;99348.22;;;7.88;39.95
54900;BME280;40801;41.924;25.562;2023-04-07T02:59:33;99343.53;;;7.74;40.19
54900;BME280;40801;41.924;25.562;2023-04-07T03:01:59;99348.09;;;7.74;40.19
54900;BME280;40801;41.924;25.562;2023-04-07T03:04:24;99341.50;;;7.66;40.37
54900;BME280;40801;41.924;25.562;2023-04-07T03:06:50;99349.66;;;7.56;40.36
54900;BME280;40801;41.924;25.562;2023-04-07T03:09:15;99346.41;;;7.59;39.67
54900;BME280;40801;41.924;25.562;2023-04-07T03:11:40;99355.50;;;7.63;40.25
54900;BME280;40801;41.924;25.562;2023-04-07T03:14:06;99340.25;;;7.59;40.44
54900;BME280;40801;41.924;25.562;2023-04-07T03:16:32;99346.94;;;7.61;40.04
54900;BME280;40801;41.924;25.562;2023-04-07T03:18:57;99352.22;;;7.66;40.25
54900;BME280;40801;41.924;25.562;2023-04-07T03:21:22;99355.94;;;7.70;40.30
54900;BME280;40801;41.924;25.562;2023-04-07T03:23:48;99354.47;;;7.59;40.24
54900;BME280;40801;41.924;25.562;2023-04-07T03:26:13;99353.81;;;7.67;39.63
54900;BME280;40801;41.924;25.562;2023-04-07T03:28:39;99357.94;;;7.60;39.77
54900;BME280;40801;41.924;25.562;2023-04-07T03:31:04;99353.38;;;7.60;39.87
54900;BME280;40801;41.924;25.562;2023-04-07T03:33:30;99353.25;;;7.46;39.83
54900;BME280;40801;41.924;25.562;2023-04-07T03:35:55;99355.06;;;7.51;39.94
54900;BME280;40801;41.924;25.562;2023-04-07T03:38:21;99357.25;;;7.49;40.31
54900;BME280;40801;41.924;25.562;2023-04-07T03:40:47;99352.00;;;7.39;40.37
54900;BME280;40801;41.924;25.562;2023-04-07T03:43:12;99360.78;;;7.44;39.69
54900;BME280;40801;41.924;25.562;2023-04-07T03:45:40;99353.88;;;7.38;40.09
54900;BME280;40801;41.924;25.562;2023-04-07T03:48:06;99366.78;;;7.36;40.66
54900;BME280;40801;41.924;25.562;2023-04-07T03:50:36;99374.94;;;7.21;40.59
54900;BME280;40801;41.924;25.562;2023-04-07T03:53:01;99368.66;;;7.36;39.97
54900;BME280;40801;41.924;25.562;2023-04-07T03:55:27;99375.16;;;7.30;40.48
54900;BME280;40801;41.924;25.562;2023-04-07T03:57:52;99373.84;;;7.27;40.30
54900;BME280;40801;41.924;25.562;2023-04-07T04:00:18;99380.19;;;7.36;40.47
54900;BME280;40801;41.924;25.562;2023-04-07T04:02:43;99376.31;;;7.47;40.29
54900;BME280;40801;41.924;25.562;2023-04-07T04:05:09;99380.88;;;7.47;40.74
54900;BME280;40801;41.924;25.562;2023-04-07T04:07:34;99392.00;;;7.35;40.62
54900;BME280;40801;41.924;25.562;2023-04-07T04:10:00;99387.50;;;7.31;40.65
54900;BME280;40801;41.924;25.562;2023-04-07T04:12:25;99388.91;;;7.23;40.37
54900;BME280;40801;41.924;25.562;2023-04-07T04:14:51;99388.34;;;7.26;40.98
54900;BME280;40801;41.924;25.562;2023-04-07T04:17:17;99395.59;;;7.26;40.53
54900;BME280;40801;41.924;25.562;2023-04-07T04:19:42;99400.75;;;7.46;40.99
54900;BME280;40801;41.924;25.562;2023-04-07T04:22:07;99391.16;;;7.40;40.80
54900;BME280;40801;41.924;25.562;2023-04-07T04:24:33;99397.53;;;7.44;40.44
54900;BME280;40801;41.924;25.562;2023-04-07T04:26:59;99387.38;;;7.41;40.27
54900;BME280;40801;41.924;25.562;2023-04-07T04:29:25;99406.97;;;7.41;40.91
54900;BME280;40801;41.924;25.562;2023-04-07T04:31:51;99399.66;;;7.47;40.47
54900;BME280;40801;41.924;25.562;2023-04-07T04:34:16;99396.31;;;7.60;39.84
54900;BME280;40801;41.924;25.562;2023-04-07T04:36:42;99398.94;;;7.65;40.07
54900;BME280;40801;41.924;25.562;2023-04-07T04:39:07;99411.00;;;7.68;40.13
54900;BME280;40801;41.924;25.562;2023-04-07T04:41:33;99406.88;;;7.75;39.99
54900;BME280;40801;41.924;25.562;2023-04-07T04:43:58;99411.38;;;7.80;40.14
54900;BME280;40801;41.924;25.562;2023-04-07T04:46:23;99409.34;;;7.72;39.44
54900;BME280;40801;41.924;25.562;2023-04-07T04:48:49;99412.41;;;7.60;39.52
54900;BME280;40801;41.924;25.562;2023-04-07T04:51:16;99411.97;;;7.77;39.85
54900;BME280;40801;41.924;25.562;2023-04-07T04:53:42;99418.13;;;7.77;39.41
54900;BME280;40801;41.924;25.562;2023-04-07T04:56:07;99417.22;;;7.87;39.30
54900;BME280;40801;41.924;25.562;2023-04-07T04:58:34;99423.00;;;7.99;39.38
54900;BME280;40801;41.924;25.562;2023-04-07T05:00:59;99416.03;;;7.98;38.83
54900;BME280;40801;41.924;25.562;2023-04-07T05:03:26;99425.69;;;7.99;38.86
54900;BME280;40801;41.924;25.562;2023-04-07T05:05:52;99432.81;;;8.09;38.78
54900;BME280;40801;41.924;25.562;2023-04-07T05:08:17;99430.25;;;7.99;39.21
54900;BME280;40801;41.924;25.562;2023-04-07T05:10:43;99431.69;;;8.15;38.62
54900;BME280;40801;41.924;25.562;2023-04-07T05:13:08;99432.19;;;7.93;39.16
54900;BME280;40801;41.924;25.562;2023-04-07T05:15:34;99442.13;;;8.17;38.82
54900;BME280;40801;41.924;25.562;2023-04-07T05:17:59;99442.19;;;8.12;38.67
54900;BME280;40801;41.924;25.562;2023-04-07T05:20:25;99448.47;;;8.26;38.56
54900;BME280;40801;41.924;25.562;2023-04-07T05:22:50;99445.97;;;8.34;38.72
54900;BME280;40801;41.924;25.562;2023-04-07T05:25:15;99447.03;;;8.33;39.17
54900;BME280;40801;41.924;25.562;2023-04-07T05:27:41;99445.97;;;8.34;38.39
54900;BME280;40801;41.924;25.562;2023-04-07T05:30:07;99453.69;;;8.41;38.69
54900;BME280;40801;41.924;25.562;2023-04-07T05:32:32;99456.88;;;7.95;38.33
54900;BME280;40801;41.924;25.562;2023-04-07T05:34:58;99448.97;;;8.28;38.62
54900;BME280;40801;41.924;25.562;2023-04-07T05:37:23;99457.75;;;8.15;38.80
54900;BME280;40801;41.924;25.562;2023-04-07T05:39:49;99458.78;;;8.43;37.96
54900;BME280;40801;41.924;25.562;2023-04-07T05:42:14;99459.78;;;8.47;38.52
54900;BME280;40801;41.924;25.562;2023-04-07T05:44:40;99456.69;;;8.58;38.13
54900;BME280;40801;41.924;25.562;2023-04-07T05:47:05;99444.63;;;8.75;37.29
54900;BME280;40801;41.924;25.562;2023-04-07T05:49:36;99450.31;;;8.73;37.71
54900;BME280;40801;41.924;25.562;2023-04-07T05:52:02;99449.13;;;8.60;36.97
54900;BME280;40801;41.924;25.562;2023-04-07T05:54:28;99450.00;;;8.75;37.34
54900;BME280;40801;41.924;25.562;2023-04-07T05:56:53;99447.03;;;8.76;36.91
54900;BME280;40801;41.924;25.562;2023-04-07T05:59:18;99458.78;;;8.80;36.94
54900;BME280;40801;41.924;25.562;2023-04-07T06:01:44;99450.16;;;9.02;36.69
54900;BME280;40801;41.924;25.562;2023-04-07T06:04:09;99453.09;;;9.19;36.11
54900;BME280;40801;41.924;25.562;2023-04-07T06:06:35;99448.59;;;9.15;36.80
54900;BME280;40801;41.924;25.562;2023-04-07T06:09:00;99455.56;;;9.16;36.72
54900;BME280;40801;41.924;25.562;2023-04-07T06:11:27;99459.66;;;9.13;36.24
54900;BME280;40801;41.924;25.562;2023-04-07T06:13:52;99452.16;;;9.43;36.22
54900;BME280;40801;41.924;25.562;2023-04-07T06:16:17;99461.94;;;9.39;36.15
54900;BME280;40801;41.924;25.562;2023-04-07T06:18:43;99455.56;;;9.48;36.19
54900;BME280;40801;41.924;25.562;2023-04-07T06:21:09;99459.31;;;9.80;35.03
54900;BME280;40801;41.924;25.562;2023-04-07T06:23:34;99456.84;;;9.83;35.76
54900;BME280;40801;41.924;25.562;2023-04-07T06:26:00;99457.81;;;9.60;35.06
54900;BME280;40801;41.924;25.562;2023-04-07T06:28:25;99467.41;;;9.80;35.34
54900;BME280;40801;41.924;25.562;2023-04-07T06:30:51;99473.59;;;10.08;34.98
54900;BME280;40801;41.924;25.562;2023-04-07T06:33:16;99468.22;;;9.94;34.86
54900;BME280;40801;41.924;25.562;2023-04-07T06:35:42;99472.63;;;10.17;34.46
54900;BME280;40801;41.924;25.562;2023-04-07T06:38:08;99474.22;;;10.18;34.32
54900;BME280;40801;41.924;25.562;2023-04-07T06:40:35;99467.44;;;10.35;33.29
54900;BME280;40801;41.924;25.562;2023-04-07T06:43:01;99478.84;;;10.45;33.79
54900;BME280;40801;41.924;25.562;2023-04-07T06:45:28;99482.78;;;10.07;33.16
54900;BME280;40801;41.924;25.562;2023-04-07T06:47:53;99485.63;;;10.15;33.06
54900;BME280;40801;41.924;25.562;2023-04-07T06:50:19;99497.69;;;10.18;32.07
54900;BME280;40801;41.924;25.562;2023-04-07T06:52:46;99491.31;;;10.14;32.69
54900;BME280;40801;41.924;25.562;2023-04-07T06:55:11;99494.19;;;10.17;33.42
54900;BME280;40801;41.924;25.562;2023-04-07T06:57:37;99494.78;;;10.14;32.44
54900;BME280;40801;41.924;25.562;2023-04-07T07:00:03;99488.44;;;10.24;32.71
54900;BME280;40801;41.924;25.562;2023-04-07T07:02:28;99493.88;;;10.05;33.03
54900;BME280;40801;41.924;25.562;2023-04-07T07:04:54;99498.78;;;10.17;33.27
54900;BME280;40801;41.924;25.562;2023-04-07T07:07:19;99498.03;;;10.44;32.74
54900;BME280;40801;41.924;25.562;2023-04-07T07:09:45;99491.31;;;10.55;32.42
54900;BME280;40801;41.924;25.562;2023-04-07T07:12:10;99498.03;;;10.44;32.68
54900;BME280;40801;41.924;25.562;2023-04-07T07:14:36;99511.06;;;10.78;32.61
54900;BME280;40801;41.924;25.562;2023-04-07T07:17:01;99515.13;;;10.89;32.76
54900;BME280;40801;41.924;25.562;2023-04-07T07:19:26;99508.97;;;11.11;32.22
54900;BME280;40801;41.924;25.562;2023-04-07T07:21:52;99513.72;;;10.92;32.14
54900;BME280;40801;41.924;25.562;2023-04-07T07:24:17;99519.31;;;10.95;32.07
54900;BME280;40801;41.924;25.562;2023-04-07T07:26:43;99520.31;;;10.99;31.80
54900;BME280;40801;41.924;25.562;2023-04-07T07:29:10;99520.81;;;11.01;31.94
54900;BME280;40801;41.924;25.562;2023-04-07T07:31:35;99534.59;;;11.00;32.36
54900;BME280;40801;41.924;25.562;2023-04-07T07:34:00;99532.16;;;10.76;32.33
54900;BME280;40801;41.924;25.562;2023-04-07T07:36:26;99533.34;;;10.70;32.28
54900;BME280;40801;41.924;25.562;2023-04-07T07:38:51;99537.44;;;10.67;32.54
54900;BME280;40801;41.924;25.562;2023-04-07T07:41:17;99529.94;;;10.78;32.20
54900;BME280;40801;41.924;25.562;2023-04-07T07:43:42;99542.84;;;10.53;32.72
54900;BME280;40801;41.924;25.562;2023-04-07T07:46:07;99533.06;;;10.58;32.81
54900;BME280;40801;41.924;25.562;2023-04-07T07:48:33;99540.22;;;10.62;32.90
54900;BME280;40801;41.924;25.562;2023-04-07T07:50:58;99538.75;;;10.70;32.80
54900;BME280;40801;41.924;25.562;2023-04-07T07:53:24;99546.81;;;10.83;32.83
54900;BME280;40801;41.924;25.562;2023-04-07T07:55:49;99548.44;;;10.71;32.29
54900;BME280;40801;41.924;25.562;2023-04-07T07:58:15;99556.22;;;10.72;32.77
54900;BME280;40801;41.924;25.562;2023-04-07T08:00:40;99548.22;;;10.67;32.93
54900;BME280;40801;41.924;25.562;2023-04-07T08:03:06;99552.28;;;11.06;32.35
54900;BME280;40801;41.924;25.562;2023-04-07T08:05:31;99550.31;;;10.84;32.81
54900;BME280;40801;41.924;25.562;2023-04-07T08:07:57;99552.78;;;10.94;32.86
54900;BME280;40801;41.924;25.562;2023-04-07T08:10:22;99549.28;;;11.07;33.02
54900;BME280;40801;41.924;25.562;2023-04-07T08:12:49;99548.34;;;11.12;32.66
54900;BME280;40801;41.924;25.562;2023-04-07T08:15:15;99550.06;;;11.08;32.49
54900;BME280;40801;41.924;25.562;2023-04-07T08:17:40;99545.66;;;11.12;32.62
54900;BME280;40801;41.924;25.562;2023-04-07T08:20:06;99545.41;;;11.36;32.68
54900;BME280;40801;41.924;25.562;2023-04-07T08:22:32;99543.44;;;11.72;31.94
54900;BME280;40801;41.924;25.562;2023-04-07T08:24:58;99534.28;;;12.13;32.00
54900;BME280;40801;41.924;25.562;2023-04-07T08:27:23;99537.16;;;12.48;31.64
54900;BME280;40801;41.924;25.562;2023-04-07T08:30:00;99528.81;;;12.92;30.91
54900;BME280;40801;41.924;25.562;2023-04-07T08:32:36;99532.22;;;13.24;30.69
54900;BME280;40801;41.924;25.562;2023-04-07T08:35:02;99518.38;;;13.60;29.87
54900;BME280;40801;41.924;25.562;2023-04-07T08:37:28;99527.41;;;13.73;29.90
54900;BME280;40801;41.924;25.562;2023-04-07T08:39:53;99532.28;;;14.05;29.27
54900;BME280;40801;41.924;25.562;2023-04-07T08:42:19;99530.78;;;13.61;29.60
54900;BME280;40801;41.924;25.562;2023-04-07T08:44:47;99525.53;;;13.47;29.56
54900;BME280;40801;41.924;25.562;2023-04-07T08:47:13;99529.69;;;13.62;29.78
54900;BME280;40801;41.924;25.562;2023-04-07T08:49:43;99531.53;;;14.34;28.86
54900;BME280;40801;41.924;25.562;2023-04-07T08:52:11;99524.63;;;15.25;28.32
54900;BME280;40801;41.924;25.562;2023-04-07T08:54:40;99518.84;;;16.26;27.62
54900;BME280;40801;41.924;25.562;2023-04-07T08:57:07;99519.88;;;16.94;27.06
54900;BME280;40801;41.924;25.562;2023-04-07T08:59:33;99511.78;;;17.10;25.94
54900;BME280;40801;41.924;25.562;2023-04-07T09:01:59;99516.00;;;16.47;25.74
54900;BME280;40801;41.924;25.562;2023-04-07T09:04:26;99520.78;;;16.74;24.73
54900;BME280;40801;41.924;25.562;2023-04-07T09:06:51;99520.44;;;16.88;25.65
54900;BME280;40801;41.924;25.562;2023-04-07T09:09:17;99520.41;;;17.00;25.66
54900;BME280;40801;41.924;25.562;2023-04-07T09:11:42;99504.25;;;17.19;25.27
54900;BME280;40801;41.924;25.562;2023-04-07T09:14:08;99514.69;;;18.17;24.51
54900;BME280;40801;41.924;25.562;2023-04-07T09:16:34;99514.16;;;18.58;24.02
54900;BME280;40801;41.924;25.562;2023-04-07T09:18:59;99520.50;;;18.00;24.02
54900;BME280;40801;41.924;25.562;2023-04-07T09:21:25;99523.94;;;18.44;24.23
54900;BME280;40801;41.924;25.562;2023-04-07T09:23:51;99509.59;;;18.47;23.53
54900;BME280;40801;41.924;25.562;2023-04-07T09:28:44;99505.06;;;19.05;23.31
54900;BME280;40801;41.924;25.562;2023-04-07T09:31:09;99503.41;;;19.97;22.24
54900;BME280;40801;41.924;25.562;2023-04-07T09:33:35;99495.41;;;20.34;22.67
54900;BME280;40801;41.924;25.562;2023-04-07T09:36:02;99490.72;;;20.84;21.25
54900;BME280;40801;41.924;25.562;2023-04-07T09:38:34;99492.56;;;21.07;20.67
54900;BME280;40801;41.924;25.562;2023-04-07T09:43:37;99487.50;;;21.39;21.78
54900;BME280;40801;41.924;25.562;2023-04-07T09:46:12;99487.50;;;22.13;20.51
54900;BME280;40801;41.924;25.562;2023-04-07T09:48:38;99496.41;;;21.99;20.35
54900;BME280;40801;41.924;25.562;2023-04-07T09:51:09;99497.25;;;21.06;20.48
54900;BME280;40801;41.924;25.562;2023-04-07T09:53:49;99500.25;;;21.24;20.12
54900;BME280;40801;41.924;25.562;2023-04-07T09:56:20;99497.53;;;20.97;20.26
54900;BME280;40801;41.924;25.562;2023-04-07T09:58:49;99497.84;;;20.17;21.79
54900;BME280;40801;41.924;25.562;2023-04-07T10:01:19;99497.13;;;20.20;21.14
54900;BME280;40801;41.924;25.562;2023-04-07T10:03:45;99498.41;;;20.26;22.66
54900;BME280;40801;41.924;25.562;2023-04-07T10:06:12;99488.72;;;20.55;22.07
54900;BME280;40801;41.924;25.562;2023-04-07T10:08:40;99494.13;;;19.83;22.29
54900;BME280;40801;41.924;25.562;2023-04-07T10:11:06;99505.50;;;19.85;22.67
54900;BME280;40801;41.924;25.562;2023-04-07T10:13:34;99492.81;;;20.68;21.65
54900;BME280;40801;41.924;25.562;2023-04-07T10:16:04;99487.44;;;20.75;22.03
54900;BME280;40801;41.924;25.562;2023-04-07T10:18:32;99485.63;;;21.13;21.62
54900;BME280;40801;41.924;25.562;2023-04-07T10:21:06;99477.78;;;21.45;21.08
54900;BME280;40801;41.924;25.562;2023-04-07T10:26:17;99472.34;;;21.89;20.86
54900;BME280;40801;41.924;25.562;2023-04-07T10:28:46;99481.47;;;21.59;20.81
54900;BME280;40801;41.924;25.562;2023-04-07T10:31:14;99470.81;;;21.91;21.15
54900;BME280;40801;41.924;25.562;2023-04-07T10:33:51;99474.78;;;22.42;20.86
54900;BME280;40801;41.924;25.562;2023-04-07T10:36:18;99475.88;;;22.30;21.51
54900;BME280;40801;41.924;25.562;2023-04-07T10:41:39;99480.56;;;23.89;19.59
54900;BME280;40801;41.924;25.562;2023-04-07T10:44:06;99468.78;;;24.53;19.75
54900;BME280;40801;41.924;25.562;2023-04-07T10:47:01;99467.19;;;24.66;18.96
54900;BME280;40801;41.924;25.562;2023-04-07T10:49:28;99465.63;;;24.65;20.21
54900;BME280;40801;41.924;25.562;2023-04-07T10:54:39;99463.69;;;25.60;18.84
54900;BME280;40801;41.924;25.562;2023-04-07T10:57:12;99469.00;;;25.26;18.03
54900;BME280;40801;41.924;25.562;2023-04-07T11:00:24;99461.81;;;25.39;18.83
54900;BME280;40801;41.924;25.562;2023-04-07T11:04:51;99463.25;;;26.24;19.00
54900;BME280;40801;41.924;25.562;2023-04-07T11:07:16;99459.78;;;26.58;18.47
54900;BME280;40801;41.924;25.562;2023-04-07T11:09:44;99459.06;;;26.88;18.17
54900;BME280;40801;41.924;25.562;2023-04-07T11:12:24;99447.63;;;26.85;18.46
54900;BME280;40801;41.924;25.562;2023-04-07T11:14:50;99451.59;;;27.22;17.93
54900;BME280;40801;41.924;25.562;2023-04-07T11:17:16;99451.63;;;27.49;18.40
54900;BME280;40801;41.924;25.562;2023-04-07T11:19:53;99440.97;;;27.48;17.25
54900;BME280;40801;41.924;25.562;2023-04-07T11:22:19;99457.72;;;26.69;17.58
54900;BME280;40801;41.924;25.562;2023-04-07T11:24:45;99441.88;;;26.73;17.80
54900;BME280;40801;41.924;25.562;2023-04-07T11:27:12;99461.53;;;26.44;18.15
54900;BME280;40801;41.924;25.562;2023-04-07T11:29:38;99447.81;;;26.27;18.41
54900;BME280;40801;41.924;25.562;2023-04-07T11:32:04;99449.59;;;25.40;19.15
54900;BME280;40801;41.924;25.562;2023-04-07T11:34:30;99462.03;;;23.58;19.45
54900;BME280;40801;41.924;25.562;2023-04-07T11:36:56;99457.78;;;22.84;20.48
54900;BME280;40801;41.924;25.562;2023-04-07T11:39:24;99461.66;;;21.77;21.16
54900;BME280;40801;41.924;25.562;2023-04-07T11:41:55;99462.53;;;21.17;21.81
54900;BME280;40801;41.924;25.562;2023-04-07T11:44:21;99460.31;;;20.96;22.43
54900;BME280;40801;41.924;25.562;2023-04-07T11:46:58;99459.59;;;20.73;22.37
54900;BME280;40801;41.924;25.562;2023-04-07T11:49:25;99455.59;;;20.93;23.22
54900;BME280;40801;41.924;25.562;2023-04-07T11:52:03;99452.09;;;21.26;23.51
54900;BME280;40801;41.924;25.562;2023-04-07T11:54:47;99460.81;;;21.36;23.32
54900;BME280;40801;41.924;25.562;2023-04-07T11:57:23;99458.22;;;21.46;23.03
54900;BME280;40801;41.924;25.562;2023-04-07T11:59:49;99456.97;;;21.81;23.03
54900;BME280;40801;41.924;25.562;2023-04-07T12:02:33;99449.88;;;21.39;23.58
54900;BME280;40801;41.924;25.562;2023-04-07T12:04:59;99445.66;;;21.86;22.70
54900;BME280;40801;41.924;25.562;2023-04-07T12:07:25;99446.03;;;20.54;24.09
54900;BME280;40801;41.924;25.562;2023-04-07T12:09:52;99436.75;;;20.62;24.46
54900;BME280;40801;41.924;25.562;2023-04-07T12:12:28;99443.22;;;20.77;24.08
54900;BME280;40801;41.924;25.562;2023-04-07T12:14:55;99444.63;;;20.93;24.17
54900;BME280;40801;41.924;25.562;2023-04-07T12:17:25;99442.41;;;20.76;23.79
54900;BME280;40801;41.924;25.562;2023-04-07T12:19:51;99451.72;;;20.19;24.07
54900;BME280;40801;41.924;25.562;2023-04-07T12:22:16;99456.38;;;19.69;25.00
54900;BME280;40801;41.924;25.562;2023-04-07T12:24:42;99448.81;;;19.43;25.39
54900;BME280;40801;41.924;25.562;2023-04-07T12:27:07;99451.06;;;18.99;26.52
54900;BME280;40801;41.924;25.562;2023-04-07T12:29:34;99450.63;;;18.62;27.12
54900;BME280;40801;41.924;25.562;2023-04-07T12:32:00;99446.72;;;18.27;27.67
54900;BME280;40801;41.924;25.562;2023-04-07T12:34:26;99434.81;;;18.36;27.67
54900;BME280;40801;41.924;25.562;2023-04-07T12:36:51;99431.41;;;18.23;28.35
54900;BME280;40801;41.924;25.562;2023-04-07T12:39:17;99445.31;;;17.86;28.97
54900;BME280;40801;41.924;25.562;2023-04-07T12:41:43;99433.97;;;17.84;28.69
54900;BME280;40801;41.924;25.562;2023-04-07T12:44:09;99438.22;;;17.38;29.38
54900;BME280;40801;41.924;25.562;2023-04-07T12:46:35;99440.66;;;17.43;29.70
54900;BME280;40801;41.924;25.562;2023-04-07T12:49:00;99434.69;;;17.10;29.85
54900;BME280;40801;41.924;25.562;2023-04-07T12:51:27;99435.63;;;17.29;29.76
54900;BME280;40801;41.924;25.562;2023-04-07T12:53:52;99431.56;;;17.23;30.28
54900;BME280;40801;41.924;25.562;2023-04-07T12:56:19;99425.28;;;17.51;30.04
54900;BME280;40801;41.924;25.562;2023-04-07T12:58:46;99424.41;;;17.62;29.95
54900;BME280;40801;41.924;25.562;2023-04-07T13:01:12;99434.69;;;17.81;29.95
54900;BME280;40801;41.924;25.562;2023-04-07T13:03:38;99419.09;;;18.64;29.60
54900;BME280;40801;41.924;25.562;2023-04-07T13:06:04;99416.34;;;19.84;28.65
54900;BME280;40801;41.924;25.562;2023-04-07T13:08:30;99415.00;;;21.06;27.39
54900;BME280;40801;41.924;25.562;2023-04-07T13:10:56;99410.84;;;21.53;26.69
54900;BME280;40801;41.924;25.562;2023-04-07T13:13:22;99399.19;;;21.67;26.17
54900;BME280;40801;41.924;25.562;2023-04-07T13:15:48;99408.53;;;21.21;26.07
54900;BME280;40801;41.924;25.562;2023-04-07T13:18:13;99399.19;;;20.62;26.74